sensor_id;sensor_type;location;lat;lon;timestamp;pressure;altitude;pressure_sealevel;temperature;humidity
50592;BME280;36548;50.506;30.834;2023-02-03T00:01:02;99484.82;;;4.87;72.04
50592;BME280;36548;50.506;30.834;2023-02-03T00:02:12;99492.13;;;4.83;72.26
50592;BME280;36548;50.506;30.834;2023-02-03T00:03:23;99495.45;;;4.87;72.06
50592;BME280;36548;50.506;30.834;2023-02-03T00:04:32;99497.10;;;4.89;71.87
50592;BME280;36548;50.506;30.834;2023-02-03T00:05:48;99493.22;;;5.12;72.41
50592;BME280;36548;50.506;30.834;2023-02-03T00:06:57;99501.20;;;5.12;72.25
50592;BME280;36548;50.506;30.834;2023-02-03T00:08:07;99497.34;;;5.18;71.28
50592;BME280;36548;50.506;30.834;2023-02-03T00:09:17;99503.20;;;5.25;71.06
50592;BME280;36548;50.506;30.834;2023-02-03T00:10:26;99497.87;;;5.25;70.52
50592;BME280;36548;50.506;30.834;2023-02-03T00:11:36;99499.51;;;5.27;70.40
50592;BME280;36548;50.506;30.834;2023-02-03T00:12:48;99496.50;;;5.34;70.97
50592;BME280;36548;50.506;30.834;2023-02-03T00:13:58;99498.72;;;5.25;69.40
50592;BME280;36548;50.506;30.834;2023-02-03T00:15:08;99502.98;;;5.12;69.46
50592;BME280;36548;50.506;30.834;2023-02-03T00:16:18;99497.92;;;5.07;69.56
50592;BME280;36548;50.506;30.834;2023-02-03T00:17:29;99499.64;;;5.08;70.32
50592;BME280;36548;50.506;30.834;2023-02-03T00:18:39;99502.08;;;4.95;70.42
50592;BME280;36548;50.506;30.834;2023-02-03T00:19:48;99506.27;;;4.84;70.90
50592;BME280;36548;50.506;30.834;2023-02-03T00:20:58;99500.32;;;4.78;71.60
50592;BME280;36548;50.506;30.834;2023-02-03T00:22:07;99510.02;;;4.80;72.03
50592;BME280;36548;50.506;30.834;2023-02-03T00:23:17;99501.88;;;4.83;72.09
50592;BME280;36548;50.506;30.834;2023-02-03T00:24:26;99502.39;;;4.73;71.44
50592;BME280;36548;50.506;30.834;2023-02-03T00:25:36;99497.83;;;4.75;71.64
50592;BME280;36548;50.506;30.834;2023-02-03T00:26:47;99502.67;;;4.85;72.05
50592;BME280;36548;50.506;30.834;2023-02-03T00:27:55;99500.38;;;4.94;72.67
50592;BME280;36548;50.506;30.834;2023-02-03T00:29:04;99497.92;;;5.07;72.97
50592;BME280;36548;50.506;30.834;2023-02-03T00:30:14;99508.16;;;5.15;71.77
50592;BME280;36548;50.506;30.834;2023-02-03T00:31:23;99505.55;;;5.13;70.44
50592;BME280;36548;50.506;30.834;2023-02-03T00:32:32;99506.08;;;5.20;70.90
50592;BME280;36548;50.506;30.834;2023-02-03T00:33:41;99499.66;;;5.24;70.72
50592;BME280;36548;50.506;30.834;2023-02-03T00:34:50;99502.89;;;5.13;69.70
50592;BME280;36548;50.506;30.834;2023-02-03T00:36:06;99504.39;;;5.19;70.20
50592;BME280;36548;50.506;30.834;2023-02-03T00:37:17;99499.34;;;5.31;71.31
50592;BME280;36548;50.506;30.834;2023-02-03T00:38:27;99494.24;;;5.26;70.33
50592;BME280;36548;50.506;30.834;2023-02-03T00:39:36;99502.40;;;5.23;70.49
50592;BME280;36548;50.506;30.834;2023-02-03T00:40:53;99504.39;;;5.19;70.15
50592;BME280;36548;50.506;30.834;2023-02-03T00:42:09;99492.91;;;5.35;70.55
50592;BME280;36548;50.506;30.834;2023-02-03T00:43:18;99506.70;;;5.25;70.45
50592;BME280;36548;50.506;30.834;2023-02-03T00:44:27;99507.23;;;5.32;70.71
50592;BME280;36548;50.506;30.834;2023-02-03T00:45:36;99505.77;;;5.42;71.44
50592;BME280;36548;50.506;30.834;2023-02-03T00:46:45;99507.08;;;5.51;70.92
50592;BME280;36548;50.506;30.834;2023-02-03T00:47:53;99504.06;;;5.57;70.41
50592;BME280;36548;50.506;30.834;2023-02-03T00:49:04;99505.36;;;5.50;68.41
50592;BME280;36548;50.506;30.834;2023-02-03T00:50:14;99500.97;;;5.49;68.48
50592;BME280;36548;50.506;30.834;2023-02-03T00:51:23;99505.45;;;5.49;68.57
50592;BME280;36548;50.506;30.834;2023-02-03T00:52:34;99506.30;;;5.33;68.31
50592;BME280;36548;50.506;30.834;2023-02-03T00:53:44;99502.08;;;5.29;69.13
50592;BME280;36548;50.506;30.834;2023-02-03T00:54:54;99498.72;;;5.25;70.80
50592;BME280;36548;50.506;30.834;2023-02-03T00:56:02;99504.22;;;5.22;71.28
50592;BME280;36548;50.506;30.834;2023-02-03T00:57:12;99506.26;;;5.17;71.46
50592;BME280;36548;50.506;30.834;2023-02-03T00:58:21;99508.38;;;5.10;70.83
50592;BME280;36548;50.506;30.834;2023-02-03T00:59:30;99510.38;;;5.07;70.62
50592;BME280;36548;50.506;30.834;2023-02-03T01:00:40;99510.45;;;5.05;70.28
50592;BME280;36548;50.506;30.834;2023-02-03T01:01:50;99507.45;;;5.11;70.89
50592;BME280;36548;50.506;30.834;2023-02-03T01:02:59;99508.21;;;5.13;70.23
50592;BME280;36548;50.506;30.834;2023-02-03T01:04:08;99500.66;;;5.06;69.31
50592;BME280;36548;50.506;30.834;2023-02-03T01:05:17;99516.94;;;5.00;69.69
50592;BME280;36548;50.506;30.834;2023-02-03T01:06:27;99506.55;;;4.95;69.87
50592;BME280;36548;50.506;30.834;2023-02-03T01:07:38;99507.26;;;4.99;70.53
50592;BME280;36548;50.506;30.834;2023-02-03T01:08:48;99514.44;;;4.97;71.07
50592;BME280;36548;50.506;30.834;2023-02-03T01:09:58;99510.48;;;4.88;71.16
50592;BME280;36548;50.506;30.834;2023-02-03T01:11:11;99511.30;;;4.72;70.96
50592;BME280;36548;50.506;30.834;2023-02-03T01:12:22;99504.41;;;4.68;71.49
50592;BME280;36548;50.506;30.834;2023-02-03T01:13:31;99515.22;;;4.65;71.32
50592;BME280;36548;50.506;30.834;2023-02-03T01:14:41;99511.97;;;4.76;72.14
50592;BME280;36548;50.506;30.834;2023-02-03T01:15:50;99515.17;;;4.83;72.02
50592;BME280;36548;50.506;30.834;2023-02-03T01:17:00;99509.55;;;4.89;71.67
50592;BME280;36548;50.506;30.834;2023-02-03T01:18:10;99515.33;;;4.97;71.80
50592;BME280;36548;50.506;30.834;2023-02-03T01:19:26;99513.39;;;5.17;71.36
50592;BME280;36548;50.506;30.834;2023-02-03T01:20:35;99512.49;;;5.00;70.12
50592;BME280;36548;50.506;30.834;2023-02-03T01:21:45;99517.39;;;5.08;70.44
50592;BME280;36548;50.506;30.834;2023-02-03T01:22:53;99518.34;;;5.07;69.94
50592;BME280;36548;50.506;30.834;2023-02-03T01:24:05;99512.58;;;4.99;69.57
50592;BME280;36548;50.506;30.834;2023-02-03T01:25:15;99514.05;;;5.04;70.30
50592;BME280;36548;50.506;30.834;2023-02-03T01:26:25;99516.45;;;5.09;70.94
50592;BME280;36548;50.506;30.834;2023-02-03T01:27:35;99521.32;;;5.01;70.80
50592;BME280;36548;50.506;30.834;2023-02-03T01:28:56;99521.75;;;4.93;70.72
50592;BME280;36548;50.506;30.834;2023-02-03T01:30:08;99522.68;;;4.92;71.33
50592;BME280;36548;50.506;30.834;2023-02-03T01:31:21;99518.13;;;4.94;71.06
50592;BME280;36548;50.506;30.834;2023-02-03T01:32:31;99519.05;;;4.59;70.61
50592;BME280;36548;50.506;30.834;2023-02-03T01:33:41;99528.97;;;4.73;71.27
50592;BME280;36548;50.506;30.834;2023-02-03T01:34:52;99520.58;;;4.81;71.54
50592;BME280;36548;50.506;30.834;2023-02-03T01:36:02;99526.06;;;4.78;71.09
50592;BME280;36548;50.506;30.834;2023-02-03T01:37:11;99526.53;;;4.69;70.98
50592;BME280;36548;50.506;30.834;2023-02-03T01:38:22;99522.39;;;4.63;71.56
50592;BME280;36548;50.506;30.834;2023-02-03T01:39:34;99521.00;;;4.73;72.03
50592;BME280;36548;50.506;30.834;2023-02-03T01:40:56;99512.72;;;4.95;72.50
50592;BME280;36548;50.506;30.834;2023-02-03T01:42:07;99510.95;;;4.78;71.26
50592;BME280;36548;50.506;30.834;2023-02-03T01:43:31;99515.17;;;4.83;71.40
50592;BME280;36548;50.506;30.834;2023-02-03T01:44:49;99512.04;;;4.92;71.16
50592;BME280;36548;50.506;30.834;2023-02-03T01:48:42;99511.67;;;4.82;70.92
50592;BME280;36548;50.506;30.834;2023-02-03T01:51:14;99506.99;;;4.70;71.60
50592;BME280;36548;50.506;30.834;2023-02-03T01:52:23;99506.83;;;4.73;71.57
50592;BME280;36548;50.506;30.834;2023-02-03T01:53:34;99510.79;;;4.82;71.83
50592;BME280;36548;50.506;30.834;2023-02-03T01:54:48;99508.67;;;4.88;72.13
50592;BME280;36548;50.506;30.834;2023-02-03T01:56:00;99502.42;;;4.89;71.64
50592;BME280;36548;50.506;30.834;2023-02-03T01:57:23;99507.48;;;4.94;71.52
50592;BME280;36548;50.506;30.834;2023-02-03T01:58:40;99515.97;;;5.18;71.96
50592;BME280;36548;50.506;30.834;2023-02-03T01:59:53;99514.58;;;5.11;71.34
50592;BME280;36548;50.506;30.834;2023-02-03T02:01:03;99513.96;;;5.06;70.19
50592;BME280;36548;50.506;30.834;2023-02-03T02:02:19;99508.30;;;5.12;70.01
50592;BME280;36548;50.506;30.834;2023-02-03T02:05:05;99505.33;;;5.18;71.26
50592;BME280;36548;50.506;30.834;2023-02-03T02:06:15;99511.49;;;5.19;72.17
50592;BME280;36548;50.506;30.834;2023-02-03T02:07:24;99509.10;;;5.30;71.65
50592;BME280;36548;50.506;30.834;2023-02-03T02:08:36;99504.39;;;5.35;70.97
50592;BME280;36548;50.506;30.834;2023-02-03T02:09:47;99507.58;;;5.42;70.68
50592;BME280;36548;50.506;30.834;2023-02-03T02:11:00;99501.82;;;5.34;69.20
50592;BME280;36548;50.506;30.834;2023-02-03T02:12:11;99499.56;;;5.26;69.27
50592;BME280;36548;50.506;30.834;2023-02-03T02:13:21;99508.16;;;5.15;69.21
50592;BME280;36548;50.506;30.834;2023-02-03T02:14:31;99507.19;;;5.16;69.97
50592;BME280;36548;50.506;30.834;2023-02-03T02:16:10;99499.56;;;5.26;71.20
50592;BME280;36548;50.506;30.834;2023-02-03T02:17:45;99507.71;;;5.07;71.11
50592;BME280;36548;50.506;30.834;2023-02-03T02:20:18;99498.84;;;4.73;71.04
50592;BME280;36548;50.506;30.834;2023-02-03T02:23:13;99501.03;;;4.82;72.60
50592;BME280;36548;50.506;30.834;2023-02-03T02:26:00;99502.70;;;5.01;71.78
50592;BME280;36548;50.506;30.834;2023-02-03T09:37:32;99690.80;;;3.87;72.07
50592;BME280;36548;50.506;30.834;2023-02-03T09:38:42;99697.03;;;3.86;71.83
50592;BME280;36548;50.506;30.834;2023-02-03T09:39:57;99682.23;;;4.00;71.51
50592;BME280;36548;50.506;30.834;2023-02-03T09:45:20;99680.88;;;3.91;70.88
50592;BME280;36548;50.506;30.834;2023-02-03T09:46:41;99680.52;;;4.18;70.28
50592;BME280;36548;50.506;30.834;2023-02-03T09:47:52;99693.09;;;4.14;70.21
50592;BME280;36548;50.506;30.834;2023-02-03T09:50:28;99696.91;;;4.28;70.08
50592;BME280;36548;50.506;30.834;2023-02-03T09:51:46;99693.30;;;4.29;69.73
50592;BME280;36548;50.506;30.834;2023-02-03T09:52:55;99684.05;;;4.37;69.59
50592;BME280;36548;50.506;30.834;2023-02-03T09:54:19;99685.23;;;4.49;69.38
50592;BME280;36548;50.506;30.834;2023-02-03T09:56:52;99679.99;;;4.48;69.11
50592;BME280;36548;50.506;30.834;2023-02-03T09:58:10;99685.97;;;4.34;69.48
50592;BME280;36548;50.506;30.834;2023-02-03T13:34:08;99653.45;;;3.32;74.76
50592;BME280;36548;50.506;30.834;2023-02-03T13:36:54;99662.53;;;3.47;74.39
50592;BME280;36548;50.506;30.834;2023-02-03T13:42:30;99662.07;;;4.15;70.56
50592;BME280;36548;50.506;30.834;2023-02-03T13:43:45;99661.41;;;4.29;69.95
50592;BME280;36548;50.506;30.834;2023-02-03T13:45:14;99655.51;;;4.41;69.86
50592;BME280;36548;50.506;30.834;2023-02-03T13:46:28;99653.10;;;4.54;69.26
50592;BME280;36548;50.506;30.834;2023-02-03T13:47:39;99657.33;;;4.58;68.24
50592;BME280;36548;50.506;30.834;2023-02-03T13:48:58;99650.64;;;4.68;68.57
50592;BME280;36548;50.506;30.834;2023-02-03T13:50:19;99656.56;;;4.56;68.87
50592;BME280;36548;50.506;30.834;2023-02-03T13:51:33;99655.76;;;4.54;68.92
50592;BME280;36548;50.506;30.834;2023-02-03T13:53:17;99649.03;;;4.47;68.62
50592;BME280;36548;50.506;30.834;2023-02-03T13:54:35;99649.91;;;4.47;68.29
50592;BME280;36548;50.506;30.834;2023-02-03T13:55:55;99653.23;;;4.33;68.37
50592;BME280;36548;50.506;30.834;2023-02-03T13:57:19;99654.40;;;4.28;68.02
50592;BME280;36548;50.506;30.834;2023-02-03T13:58:37;99648.77;;;4.34;68.49
50592;BME280;36548;50.506;30.834;2023-02-03T13:59:47;99655.52;;;4.22;68.48
50592;BME280;36548;50.506;30.834;2023-02-03T14:04:51;99653.91;;;4.19;68.21
50592;BME280;36548;50.506;30.834;2023-02-03T14:06:02;99660.34;;;4.14;67.59
50592;BME280;36548;50.506;30.834;2023-02-03T14:08:47;99663.15;;;4.10;67.38
50592;BME280;36548;50.506;30.834;2023-02-03T14:11:38;99649.72;;;4.14;67.83
50592;BME280;36548;50.506;30.834;2023-02-03T14:15:19;99657.06;;;3.89;67.03
50592;BME280;36548;50.506;30.834;2023-02-03T14:16:50;99651.41;;;3.97;67.22
50592;BME280;36548;50.506;30.834;2023-02-03T14:20:43;99650.95;;;3.68;67.11
50592;BME280;36548;50.506;30.834;2023-02-03T14:22:04;99649.73;;;3.75;66.89
50592;BME280;36548;50.506;30.834;2023-02-03T14:23:17;99658.18;;;3.65;67.34
50592;BME280;36548;50.506;30.834;2023-02-03T14:25:57;99652.02;;;3.64;67.11
50592;BME280;36548;50.506;30.834;2023-02-03T14:27:22;99656.89;;;3.54;67.69
50592;BME280;36548;50.506;30.834;2023-02-03T14:28:40;99655.97;;;3.55;67.68
50592;BME280;36548;50.506;30.834;2023-02-03T14:30:10;99655.89;;;3.57;67.82
50592;BME280;36548;50.506;30.834;2023-02-03T14:31:27;99653.75;;;3.65;67.52
50592;BME280;36548;50.506;30.834;2023-02-03T14:32:51;99652.43;;;3.55;67.66
50592;BME280;36548;50.506;30.834;2023-02-03T14:34:09;99648.48;;;3.64;67.50
50592;BME280;36548;50.506;30.834;2023-02-03T14:35:32;99650.52;;;3.58;67.45
50592;BME280;36548;50.506;30.834;2023-02-03T14:36:51;99647.60;;;3.44;67.44
50592;BME280;36548;50.506;30.834;2023-02-03T14:40:58;99642.11;;;3.49;68.04
50592;BME280;36548;50.506;30.834;2023-02-03T14:42:16;99655.04;;;3.36;68.02
50592;BME280;36548;50.506;30.834;2023-02-03T14:43:41;99652.38;;;3.36;68.00
50592;BME280;36548;50.506;30.834;2023-02-03T14:52:15;99663.28;;;3.30;68.10
50592;BME280;36548;50.506;30.834;2023-02-03T14:58:21;99658.52;;;3.17;68.09
50592;BME280;36548;50.506;30.834;2023-02-03T15:00:54;99666.47;;;3.17;67.88
50592;BME280;36548;50.506;30.834;2023-02-03T15:03:20;99663.81;;;3.17;68.24
50592;BME280;36548;50.506;30.834;2023-02-03T15:04:30;99658.80;;;3.11;67.43
50592;BME280;36548;50.506;30.834;2023-02-03T15:05:45;99660.84;;;3.04;67.55
50592;BME280;36548;50.506;30.834;2023-02-03T15:06:55;99660.09;;;3.01;67.53
50592;BME280;36548;50.506;30.834;2023-02-03T15:09:44;99664.62;;;2.99;67.28
50592;BME280;36548;50.506;30.834;2023-02-03T15:14:21;99664.69;;;2.97;66.57
50592;BME280;36548;50.506;30.834;2023-02-03T15:15:46;99653.73;;;3.05;66.27
50592;BME280;36548;50.506;30.834;2023-02-03T15:17:03;99672.27;;;2.84;65.90
50592;BME280;36548;50.506;30.834;2023-02-03T15:18:25;99672.03;;;2.90;66.88
50592;BME280;36548;50.506;30.834;2023-02-03T15:19:40;99659.39;;;2.97;66.12
50592;BME280;36548;50.506;30.834;2023-02-03T15:20:54;99668.50;;;2.90;66.14
50592;BME280;36548;50.506;30.834;2023-02-03T15:23:41;99667.72;;;2.88;66.03
50592;BME280;36548;50.506;30.834;2023-02-03T15:25:17;99678.70;;;2.79;66.31
50592;BME280;36548;50.506;30.834;2023-02-03T15:26:23;99673.53;;;2.76;66.01
50592;BME280;36548;50.506;30.834;2023-02-03T15:27:33;99677.98;;;2.75;66.31
50592;BME280;36548;50.506;30.834;2023-02-03T15:28:42;99678.28;;;2.67;66.39
50592;BME280;36548;50.506;30.834;2023-02-03T15:29:52;99680.16;;;2.65;66.35
50592;BME280;36548;50.506;30.834;2023-02-03T15:31:13;99676.82;;;2.60;66.50
50592;BME280;36548;50.506;30.834;2023-02-03T15:33:49;99669.22;;;2.73;66.52
50592;BME280;36548;50.506;30.834;2023-02-03T15:34:59;99674.86;;;2.65;66.83
50592;BME280;36548;50.506;30.834;2023-02-03T15:36:14;99673.97;;;2.65;66.59
50592;BME280;36548;50.506;30.834;2023-02-03T15:37:48;99668.37;;;2.72;66.51
50592;BME280;36548;50.506;30.834;2023-02-03T15:39:08;99677.50;;;2.65;66.98
50592;BME280;36548;50.506;30.834;2023-02-03T15:40:20;99675.13;;;2.80;66.53
50592;BME280;36548;50.506;30.834;2023-02-03T15:41:31;99677.44;;;2.67;66.22
50592;BME280;36548;50.506;30.834;2023-02-03T15:42:58;99686.17;;;2.69;66.52
50592;BME280;36548;50.506;30.834;2023-02-03T15:44:12;99680.73;;;2.72;66.88
50592;BME280;36548;50.506;30.834;2023-02-03T15:45:29;99679.81;;;2.73;66.68
50592;BME280;36548;50.506;30.834;2023-02-03T15:46:44;99684.27;;;2.72;66.48
50592;BME280;36548;50.506;30.834;2023-02-03T15:48:07;99676.73;;;2.84;66.76
50592;BME280;36548;50.506;30.834;2023-02-03T15:49:19;99678.97;;;2.72;66.69
50592;BME280;36548;50.506;30.834;2023-02-03T15:50:41;99681.96;;;2.85;66.65
50592;BME280;36548;50.506;30.834;2023-02-03T15:51:58;99679.65;;;2.78;66.74
50592;BME280;36548;50.506;30.834;2023-02-03T15:54:39;99690.90;;;2.83;65.99
50592;BME280;36548;50.506;30.834;2023-02-03T15:56:01;99687.77;;;2.73;66.29
50592;BME280;36548;50.506;30.834;2023-02-03T15:57:30;99687.84;;;2.71;66.06
50592;BME280;36548;50.506;30.834;2023-02-03T15:58:43;99698.44;;;2.71;66.58
50592;BME280;36548;50.506;30.834;2023-02-03T15:59:57;99692.16;;;2.74;66.84
50592;BME280;36548;50.506;30.834;2023-02-03T16:01:09;99694.60;;;2.79;67.12
50592;BME280;36548;50.506;30.834;2023-02-03T16:02:27;99690.83;;;2.84;67.05
50592;BME280;36548;50.506;30.834;2023-02-03T16:03:43;99686.34;;;2.86;66.94
50592;BME280;36548;50.506;30.834;2023-02-03T16:04:52;99697.73;;;2.88;66.80
50592;BME280;36548;50.506;30.834;2023-02-03T16:07:39;99692.42;;;2.88;66.88
50592;BME280;36548;50.506;30.834;2023-02-03T16:08:48;99694.91;;;2.93;67.56
50592;BME280;36548;50.506;30.834;2023-02-03T16:09:59;99692.36;;;2.90;66.89
50592;BME280;36548;50.506;30.834;2023-02-03T16:12:33;99693.55;;;2.83;67.32
50592;BME280;36548;50.506;30.834;2023-02-03T16:13:43;99690.25;;;2.78;67.57
50592;BME280;36548;50.506;30.834;2023-02-03T16:14:54;99695.59;;;2.76;67.71
50592;BME280;36548;50.506;30.834;2023-02-03T16:16:18;99692.36;;;2.69;67.76
50592;BME280;36548;50.506;30.834;2023-02-03T16:17:35;99689.22;;;2.60;67.88
50592;BME280;36548;50.506;30.834;2023-02-03T16:18:52;99695.50;;;2.57;68.31
50592;BME280;36548;50.506;30.834;2023-02-03T16:21:30;99697.59;;;2.49;68.94
50592;BME280;36548;50.506;30.834;2023-02-03T16:23:01;99689.22;;;2.60;69.31
50592;BME280;36548;50.506;30.834;2023-02-03T16:24:42;99691.31;;;2.51;69.38
50592;BME280;36548;50.506;30.834;2023-02-03T16:26:17;99686.02;;;2.51;69.22
50592;BME280;36548;50.506;30.834;2023-02-03T16:27:29;99693.34;;;2.45;69.51
50592;BME280;36548;50.506;30.834;2023-02-03T16:28:39;99689.81;;;2.44;69.67
50592;BME280;36548;50.506;30.834;2023-02-03T16:31:44;99687.91;;;2.48;69.93
50592;BME280;36548;50.506;30.834;2023-02-03T16:33:18;99682.61;;;2.48;69.76
50592;BME280;36548;50.506;30.834;2023-02-03T16:34:46;99680.45;;;2.35;69.98
50592;BME280;36548;50.506;30.834;2023-02-03T16:36:15;99689.09;;;2.41;70.41
50592;BME280;36548;50.506;30.834;2023-02-03T16:37:43;99687.48;;;2.36;69.98
50592;BME280;36548;50.506;30.834;2023-02-03T16:39:11;99687.48;;;2.36;70.26
50592;BME280;36548;50.506;30.834;2023-02-03T16:40:40;99688.17;;;2.42;70.33
50592;BME280;36548;50.506;30.834;2023-02-03T16:42:16;99685.81;;;2.34;69.59
50592;BME280;36548;50.506;30.834;2023-02-03T16:43:44;99679.41;;;2.39;69.77
50592;BME280;36548;50.506;30.834;2023-02-03T16:45:15;99683.30;;;2.53;69.63
50592;BME280;36548;50.506;30.834;2023-02-03T16:46:44;99682.12;;;2.60;69.20
50592;BME280;36548;50.506;30.834;2023-02-03T16:48:19;99678.77;;;2.77;69.46
50592;BME280;36548;50.506;30.834;2023-02-03T16:49:46;99673.84;;;2.68;69.67
50592;BME280;36548;50.506;30.834;2023-02-03T16:51:15;99677.30;;;2.70;69.61
50592;BME280;36548;50.506;30.834;2023-02-03T16:52:26;99678.22;;;2.69;69.47
50592;BME280;36548;50.506;30.834;2023-02-03T16:53:43;99671.19;;;2.68;68.75
50592;BME280;36548;50.506;30.834;2023-02-03T16:54:53;99672.09;;;2.46;68.81
50592;BME280;36548;50.506;30.834;2023-02-03T16:56:03;99686.02;;;2.51;69.63
50592;BME280;36548;50.506;30.834;2023-02-03T16:57:18;99676.89;;;2.59;69.37
50592;BME280;36548;50.506;30.834;2023-02-03T16:58:28;99680.03;;;2.46;69.74
50592;BME280;36548;50.506;30.834;2023-02-03T16:59:36;99679.12;;;2.47;70.06
50592;BME280;36548;50.506;30.834;2023-02-03T17:00:52;99671.89;;;2.51;69.61
50592;BME280;36548;50.506;30.834;2023-02-03T17:02:01;99687.23;;;2.43;70.14
50592;BME280;36548;50.506;30.834;2023-02-03T17:03:16;99686.44;;;2.41;69.97
50592;BME280;36548;50.506;30.834;2023-02-03T17:04:27;99686.38;;;2.42;70.18
50592;BME280;36548;50.506;30.834;2023-02-03T17:05:38;99687.16;;;2.44;69.71
50592;BME280;36548;50.506;30.834;2023-02-03T17:06:47;99688.77;;;2.48;69.73
50592;BME280;36548;50.506;30.834;2023-02-03T17:07:59;99688.47;;;2.56;69.64
50592;BME280;36548;50.506;30.834;2023-02-03T17:09:09;99681.20;;;2.61;69.40
50592;BME280;36548;50.506;30.834;2023-02-03T17:10:18;99680.94;;;2.67;69.57
50592;BME280;36548;50.506;30.834;2023-02-03T17:11:27;99687.16;;;2.66;69.25
50592;BME280;36548;50.506;30.834;2023-02-03T17:12:36;99685.39;;;2.67;69.50
50592;BME280;36548;50.506;30.834;2023-02-03T17:13:46;99685.45;;;2.65;69.40
50592;BME280;36548;50.506;30.834;2023-02-03T17:14:55;99680.22;;;2.64;69.47
50592;BME280;36548;50.506;30.834;2023-02-03T17:16:09;99683.03;;;2.59;69.18
50592;BME280;36548;50.506;30.834;2023-02-03T17:17:25;99683.52;;;2.69;69.66
50592;BME280;36548;50.506;30.834;2023-02-03T17:18:33;99695.37;;;2.60;69.93
50592;BME280;36548;50.506;30.834;2023-02-03T17:19:48;99681.00;;;2.66;69.57
50592;BME280;36548;50.506;30.834;2023-02-03T17:21:03;99687.55;;;2.57;69.87
50592;BME280;36548;50.506;30.834;2023-02-03T17:22:16;99684.50;;;2.66;69.65
50592;BME280;36548;50.506;30.834;2023-02-03T17:23:26;99682.31;;;2.55;69.79
50592;BME280;36548;50.506;30.834;2023-02-03T17:24:35;99683.23;;;2.54;69.85
50592;BME280;36548;50.506;30.834;2023-02-03T17:25:45;99686.73;;;2.55;70.20
50592;BME280;36548;50.506;30.834;2023-02-03T17:26:54;99695.50;;;2.57;70.26
50592;BME280;36548;50.506;30.834;2023-02-03T17:28:07;99687.55;;;2.57;70.11
50592;BME280;36548;50.506;30.834;2023-02-03T17:29:42;99682.41;;;2.75;69.78
50592;BME280;36548;50.506;30.834;2023-02-03T17:32:12;99676.28;;;2.95;68.62
50592;BME280;36548;50.506;30.834;2023-02-03T17:33:22;99684.48;;;2.88;68.35
50592;BME280;36548;50.506;30.834;2023-02-03T17:34:33;99687.27;;;2.85;67.97
50592;BME280;36548;50.506;30.834;2023-02-03T17:35:44;99686.41;;;2.85;68.46
50592;BME280;36548;50.506;30.834;2023-02-03T17:36:54;99684.55;;;2.87;68.86
50592;BME280;36548;50.506;30.834;2023-02-03T17:38:03;99695.28;;;2.84;68.39
50592;BME280;36548;50.506;30.834;2023-02-03T17:39:12;99690.05;;;2.82;68.50
50592;BME280;36548;50.506;30.834;2023-02-03T17:40:41;99692.45;;;2.66;68.08
50592;BME280;36548;50.506;30.834;2023-02-03T17:42:08;99686.23;;;2.67;68.82
50592;BME280;36548;50.506;30.834;2023-02-03T17:43:35;99691.67;;;2.64;68.61
50592;BME280;36548;50.506;30.834;2023-02-03T17:45:03;99686.44;;;2.63;69.06
50592;BME280;36548;50.506;30.834;2023-02-03T17:46:30;99686.57;;;2.60;68.67
50592;BME280;36548;50.506;30.834;2023-02-03T17:47:57;99683.41;;;2.50;68.53
50592;BME280;36548;50.506;30.834;2023-02-03T17:49:26;99693.97;;;2.51;69.02
50592;BME280;36548;50.506;30.834;2023-02-03T19:36:59;99656.91;;;1.34;74.15
50592;BME280;36548;50.506;30.834;2023-02-03T19:38:16;99655.73;;;1.43;72.91
50592;BME280;36548;50.506;30.834;2023-02-03T19:39:25;99660.20;;;1.41;72.90
50592;BME280;36548;50.506;30.834;2023-02-03T19:40:34;99653.70;;;1.50;72.75
50592;BME280;36548;50.506;30.834;2023-02-03T19:41:44;99658.78;;;1.56;71.89
50592;BME280;36548;50.506;30.834;2023-02-03T19:42:54;99664.41;;;1.70;71.79
50592;BME280;36548;50.506;30.834;2023-02-03T19:44:03;99658.50;;;1.87;71.16
50592;BME280;36548;50.506;30.834;2023-02-03T19:45:19;99659.06;;;2.18;70.52
50592;BME280;36548;50.506;30.834;2023-02-03T19:46:28;99657.10;;;2.23;70.02
50592;BME280;36548;50.506;30.834;2023-02-03T19:47:39;99655.50;;;2.41;69.85
50592;BME280;36548;50.506;30.834;2023-02-03T19:48:48;99656.73;;;2.54;68.08
50592;BME280;36548;50.506;30.834;2023-02-03T19:49:57;99660.55;;;2.69;67.45
50592;BME280;36548;50.506;30.834;2023-02-03T19:51:08;99664.53;;;2.80;66.94
50592;BME280;36548;50.506;30.834;2023-02-03T19:52:24;99652.35;;;2.96;67.14
50592;BME280;36548;50.506;30.834;2023-02-03T19:53:33;99651.88;;;2.86;67.08
50592;BME280;36548;50.506;30.834;2023-02-03T19:54:43;99660.75;;;2.85;66.98
50592;BME280;36548;50.506;30.834;2023-02-03T19:55:58;99657.86;;;2.92;66.92
50592;BME280;36548;50.506;30.834;2023-02-03T19:57:07;99664.73;;;2.75;66.18
50592;BME280;36548;50.506;30.834;2023-02-03T19:58:17;99653.59;;;2.67;65.76
50592;BME280;36548;50.506;30.834;2023-02-03T19:59:26;99658.20;;;2.62;65.87
50592;BME280;36548;50.506;30.834;2023-02-03T20:00:35;99654.02;;;2.56;65.77
50592;BME280;36548;50.506;30.834;2023-02-03T20:01:50;99650.45;;;2.57;65.70
50592;BME280;36548;50.506;30.834;2023-02-03T20:02:59;99658.22;;;2.39;65.58
50592;BME280;36548;50.506;30.834;2023-02-03T20:04:08;99652.98;;;2.38;66.24
50592;BME280;36548;50.506;30.834;2023-02-03T20:05:17;99661.98;;;2.34;65.88
50592;BME280;36548;50.506;30.834;2023-02-03T20:06:27;99657.53;;;2.34;66.38
50592;BME280;36548;50.506;30.834;2023-02-03T20:07:37;99658.48;;;2.33;66.19
50592;BME280;36548;50.506;30.834;2023-02-03T20:08:58;99652.00;;;2.41;65.69
50592;BME280;36548;50.506;30.834;2023-02-03T20:10:08;99655.14;;;2.28;65.83
50592;BME280;36548;50.506;30.834;2023-02-03T20:11:17;99649.91;;;2.27;65.96
50592;BME280;36548;50.506;30.834;2023-02-03T20:12:29;99648.44;;;2.19;65.41
50592;BME280;36548;50.506;30.834;2023-02-03T20:13:39;99648.44;;;2.19;65.98
50592;BME280;36548;50.506;30.834;2023-02-03T20:14:49;99643.14;;;2.19;66.45
50592;BME280;36548;50.506;30.834;2023-02-03T20:15:58;99646.52;;;2.23;66.82
50592;BME280;36548;50.506;30.834;2023-02-03T20:17:07;99649.16;;;2.23;66.68